sensor_id;sensor_type;location;lat;lon;timestamp;pressure;altitude;pressure_sealevel;temperature;humidity
60725;BME280;59881;36.722;-4.462;2022-08-19T00:01:33;100870.09;;;21.83;75.31
60725;BME280;59881;36.722;-4.462;2022-08-19T00:04:01;100297.06;;;18.27;74.92
60725;BME280;59881;36.722;-4.462;2022-08-19T00:06:28;100851.88;;;21.62;75.57
60725;BME280;59881;36.722;-4.462;2022-08-19T00:08:55;101044.59;;;21.81;76.01
60725;BME280;59881;36.722;-4.462;2022-08-19T00:11:22;100364.00;;;18.58;76.01
60725;BME280;59881;36.722;-4.462;2022-08-19T00:13:48;100241.94;;;17.85;75.94
60725;BME280;59881;36.722;-4.462;2022-08-19T00:16:18;100888.38;;;21.79;76.68
60725;BME280;59881;36.722;-4.462;2022-08-19T00:18:46;100866.78;;;21.56;77.13
60725;BME280;59881;36.722;-4.462;2022-08-19T00:21:12;100875.16;;;21.69;77.30
60725;BME280;59881;36.722;-4.462;2022-08-19T00:23:39;100927.91;;;21.94;77.96
60725;BME280;59881;36.722;-4.462;2022-08-19T00:26:06;100409.78;;;18.79;77.74
60725;BME280;59881;36.722;-4.462;2022-08-19T00:28:32;100358.31;;;18.45;77.60
60725;BME280;59881;36.722;-4.462;2022-08-19T00:30:59;100061.94;;;16.71;77.52
60725;BME280;59881;36.722;-4.462;2022-08-19T00:33:25;100833.16;;;20.37;77.87
60725;BME280;59881;36.722;-4.462;2022-08-19T00:35:51;100283.84;;;18.17;77.49
60725;BME280;59881;36.722;-4.462;2022-08-19T00:38:16;100147.75;;;17.25;77.36
60725;BME280;59881;36.722;-4.462;2022-08-19T00:40:43;101019.44;;;21.82;77.53
60725;BME280;59881;36.722;-4.462;2022-08-19T00:43:12;100893.75;;;21.79;77.51
60725;BME280;59881;36.722;-4.462;2022-08-19T00:45:40;101059.19;;;21.79;77.50
60725;BME280;59881;36.722;-4.462;2022-08-19T00:48:09;101002.34;;;21.67;77.58
60725;BME280;59881;36.722;-4.462;2022-08-19T00:50:35;100904.66;;;21.61;77.54
60725;BME280;59881;36.722;-4.462;2022-08-19T00:53:01;100131.38;;;17.12;76.70
60725;BME280;59881;36.722;-4.462;2022-08-19T00:55:30;100276.13;;;17.97;76.54
60725;BME280;59881;36.722;-4.462;2022-08-19T00:58:01;100071.06;;;16.68;76.19
60725;BME280;59881;36.722;-4.462;2022-08-19T01:00:28;100295.16;;;18.03;76.41
60725;BME280;59881;36.722;-4.462;2022-08-19T01:02:54;100086.91;;;16.78;76.37
60725;BME280;59881;36.722;-4.462;2022-08-19T01:05:24;100787.09;;;21.09;76.83
60725;BME280;59881;36.722;-4.462;2022-08-19T01:07:53;100902.97;;;21.68;76.39
60725;BME280;59881;36.722;-4.462;2022-08-19T01:10:22;100189.78;;;17.48;76.17
60725;BME280;59881;36.722;-4.462;2022-08-19T01:12:49;100690.69;;;20.52;76.56
60725;BME280;59881;36.722;-4.462;2022-08-19T01:15:18;100856.06;;;21.40;76.42
60725;BME280;59881;36.722;-4.462;2022-08-19T01:17:45;100158.34;;;17.17;76.03
60725;BME280;59881;36.722;-4.462;2022-08-19T01:20:14;100704.25;;;20.50;76.51
60725;BME280;59881;36.722;-4.462;2022-08-19T01:25:06;100966.34;;;21.61;76.78
60725;BME280;59881;36.722;-4.462;2022-08-19T01:27:44;100652.72;;;20.15;76.97
60725;BME280;59881;36.722;-4.462;2022-08-19T01:30:14;100450.53;;;18.90;76.95
60725;BME280;59881;36.722;-4.462;2022-08-19T01:32:40;100391.53;;;18.58;77.10
60725;BME280;59881;36.722;-4.462;2022-08-19T01:35:06;100879.38;;;21.56;77.25
60725;BME280;59881;36.722;-4.462;2022-08-19T01:37:56;100271.31;;;17.75;76.75
60725;BME280;59881;36.722;-4.462;2022-08-19T01:40:25;100948.88;;;20.74;77.54
60725;BME280;59881;36.722;-4.462;2022-08-19T01:42:52;100884.56;;;21.57;77.07
60725;BME280;59881;36.722;-4.462;2022-08-19T01:45:20;100867.13;;;21.37;77.22
60725;BME280;59881;36.722;-4.462;2022-08-19T01:47:46;100050.72;;;16.33;76.75
60725;BME280;59881;36.722;-4.462;2022-08-19T01:50:12;100999.16;;;21.47;76.89
60725;BME280;59881;36.722;-4.462;2022-08-19T01:52:39;100698.69;;;20.27;76.83
60725;BME280;59881;36.722;-4.462;2022-08-19T01:55:09;100830.28;;;21.22;76.32
60725;BME280;59881;36.722;-4.462;2022-08-19T01:57:36;100022.25;;;16.25;75.19
60725;BME280;59881;36.722;-4.462;2022-08-19T02:00:09;100292.25;;;17.88;74.93
60725;BME280;59881;36.722;-4.462;2022-08-19T02:02:35;100834.50;;;21.17;74.60
60725;BME280;59881;36.722;-4.462;2022-08-19T02:05:01;100042.72;;;16.33;73.94
60725;BME280;59881;36.722;-4.462;2022-08-19T02:07:26;99500.31;;;12.88;72.77
60725;BME280;59881;36.722;-4.462;2022-08-19T02:09:54;100005.06;;;15.93;72.80
60725;BME280;59881;36.722;-4.462;2022-08-19T02:12:21;100875.84;;;21.39;72.83
60725;BME280;59881;36.722;-4.462;2022-08-19T02:14:46;100163.63;;;16.83;72.52
60725;BME280;59881;36.722;-4.462;2022-08-19T02:17:12;100905.31;;;21.39;72.42
60725;BME280;59881;36.722;-4.462;2022-08-19T02:19:38;100718.31;;;20.44;72.20
60725;BME280;59881;36.722;-4.462;2022-08-19T02:22:04;100704.22;;;20.34;72.42
60725;BME280;59881;36.722;-4.462;2022-08-19T02:24:30;100848.22;;;21.22;72.37
60725;BME280;59881;36.722;-4.462;2022-08-19T02:26:56;100688.50;;;20.22;72.80
60725;BME280;59881;36.722;-4.462;2022-08-19T02:29:22;100892.94;;;21.21;73.11
60725;BME280;59881;36.722;-4.462;2022-08-19T02:31:48;100152.75;;;17.02;73.17
60725;BME280;59881;36.722;-4.462;2022-08-19T02:34:13;100232.06;;;17.51;73.38
60725;BME280;59881;36.722;-4.462;2022-08-19T02:36:39;100829.81;;;21.11;73.91
60725;BME280;59881;36.722;-4.462;2022-08-19T02:39:04;100699.38;;;20.29;74.13
60725;BME280;59881;36.722;-4.462;2022-08-19T02:41:32;100729.16;;;20.42;74.61
60725;BME280;59881;36.722;-4.462;2022-08-19T02:44:00;100872.50;;;21.28;74.99
60725;BME280;59881;36.722;-4.462;2022-08-19T02:46:28;100101.03;;;16.52;74.77
60725;BME280;59881;36.722;-4.462;2022-08-19T02:48:57;100714.59;;;20.29;75.28
60725;BME280;59881;36.722;-4.462;2022-08-19T02:51:25;100256.31;;;17.40;75.21
60725;BME280;59881;36.722;-4.462;2022-08-19T02:53:52;100883.19;;;21.20;75.56
60725;BME280;59881;36.722;-4.462;2022-08-19T02:56:18;100280.13;;;17.41;75.29
60725;BME280;59881;36.722;-4.462;2022-08-19T02:58:44;100128.38;;;16.63;75.60
60725;BME280;59881;36.722;-4.462;2022-08-19T03:01:10;98857.72;;;6.95;74.50
60725;BME280;59881;36.722;-4.462;2022-08-19T03:03:37;100812.69;;;20.79;75.75
60725;BME280;59881;36.722;-4.462;2022-08-19T03:06:11;100009.19;;;15.88;75.34
60725;BME280;59881;36.722;-4.462;2022-08-19T03:08:39;100378.28;;;18.06;75.27
60725;BME280;59881;36.722;-4.462;2022-08-19T03:11:05;100892.22;;;21.03;75.76
60725;BME280;59881;36.722;-4.462;2022-08-19T03:13:31;100870.31;;;20.99;75.96
60725;BME280;59881;36.722;-4.462;2022-08-19T03:15:57;100851.19;;;20.94;76.10
60725;BME280;59881;36.722;-4.462;2022-08-19T03:18:23;99865.06;;;14.88;75.61
60725;BME280;59881;36.722;-4.462;2022-08-19T03:20:52;100750.38;;;20.36;75.96
60725;BME280;59881;36.722;-4.462;2022-08-19T03:23:22;100121.41;;;16.44;75.82
60725;BME280;59881;36.722;-4.462;2022-08-19T03:25:52;100892.91;;;21.13;76.18
60725;BME280;59881;36.722;-4.462;2022-08-19T03:28:20;101184.75;;;21.15;76.22
60725;BME280;59881;36.722;-4.462;2022-08-19T03:31:00;100828.41;;;19.80;75.61
60725;BME280;59881;36.722;-4.462;2022-08-19T03:33:27;101094.50;;;21.15;75.74
60725;BME280;59881;36.722;-4.462;2022-08-19T03:36:20;100889.06;;;21.16;75.98
60725;BME280;59881;36.722;-4.462;2022-08-19T03:38:49;100116.56;;;16.39;75.86
60725;BME280;59881;36.722;-4.462;2022-08-19T03:41:18;100094.69;;;16.27;75.96
60725;BME280;59881;36.722;-4.462;2022-08-19T03:43:45;100957.00;;;20.21;75.97
60725;BME280;59881;36.722;-4.462;2022-08-19T03:46:16;100288.25;;;17.40;75.87
60725;BME280;59881;36.722;-4.462;2022-08-19T03:48:44;99999.06;;;15.73;75.34
60725;BME280;59881;36.722;-4.462;2022-08-19T03:51:24;100239.03;;;17.17;75.55
60725;BME280;59881;36.722;-4.462;2022-08-19T03:53:51;100299.66;;;17.50;75.61
60725;BME280;59881;36.722;-4.462;2022-08-19T03:56:17;101047.03;;;20.91;76.05
60725;BME280;59881;36.722;-4.462;2022-08-19T03:58:44;100155.41;;;16.58;75.68
60725;BME280;59881;36.722;-4.462;2022-08-19T04:01:21;100122.84;;;16.38;75.31
60725;BME280;59881;36.722;-4.462;2022-08-19T04:03:48;100186.31;;;16.77;75.70
60725;BME280;59881;36.722;-4.462;2022-08-19T04:06:17;100362.25;;;16.37;75.54
60725;BME280;59881;36.722;-4.462;2022-08-19T04:08:45;100271.19;;;17.24;75.56
60725;BME280;59881;36.722;-4.462;2022-08-19T04:11:19;100143.69;;;16.43;75.56
60725;BME280;59881;36.722;-4.462;2022-08-19T04:13:48;100398.94;;;16.61;75.85
60725;BME280;59881;36.722;-4.462;2022-08-19T04:16:14;100962.56;;;20.62;75.29
60725;BME280;59881;36.722;-4.462;2022-08-19T04:18:40;100935.47;;;20.31;74.79
60725;BME280;59881;36.722;-4.462;2022-08-19T04:21:07;100740.38;;;19.53;74.36
60725;BME280;59881;36.722;-4.462;2022-08-19T04:23:34;100883.13;;;19.94;73.67
60725;BME280;59881;36.722;-4.462;2022-08-19T04:26:02;100920.53;;;21.14;73.14
60725;BME280;59881;36.722;-4.462;2022-08-19T04:28:27;100158.06;;;16.58;72.35
60725;BME280;59881;36.722;-4.462;2022-08-19T04:30:55;100120.50;;;16.17;71.87
60725;BME280;59881;36.722;-4.462;2022-08-19T04:33:23;100174.09;;;16.66;71.49
60725;BME280;59881;36.722;-4.462;2022-08-19T04:35:52;101059.97;;;21.04;71.72
60725;BME280;59881;36.722;-4.462;2022-08-19T04:38:19;100433.47;;;18.14;70.96
60725;BME280;59881;36.722;-4.462;2022-08-19T04:40:47;100261.19;;;17.18;70.84
60725;BME280;59881;36.722;-4.462;2022-08-19T04:43:33;100997.47;;;20.53;71.18
60725;BME280;59881;36.722;-4.462;2022-08-19T04:46:05;100819.28;;;19.91;70.76
60725;BME280;59881;36.722;-4.462;2022-08-19T04:48:31;100899.41;;;21.02;70.73
60725;BME280;59881;36.722;-4.462;2022-08-19T04:50:58;100287.53;;;17.29;70.59
60725;BME280;59881;36.722;-4.462;2022-08-19T04:53:28;100156.19;;;16.50;70.06
60725;BME280;59881;36.722;-4.462;2022-08-19T04:56:05;100637.81;;;19.46;69.82
60725;BME280;59881;36.722;-4.462;2022-08-19T04:58:35;100179.72;;;16.63;69.45
60725;BME280;59881;36.722;-4.462;2022-08-19T05:01:01;100778.78;;;20.20;69.93
60725;BME280;59881;36.722;-4.462;2022-08-19T05:03:27;100594.38;;;19.01;69.50
60725;BME280;59881;36.722;-4.462;2022-08-19T05:06:04;100936.13;;;21.10;69.67
60725;BME280;59881;36.722;-4.462;2022-08-19T05:08:30;100282.91;;;16.60;69.29
60725;BME280;59881;36.722;-4.462;2022-08-19T05:10:56;100918.63;;;20.90;69.66
60725;BME280;59881;36.722;-4.462;2022-08-19T05:13:22;100166.25;;;16.21;69.15
60725;BME280;59881;36.722;-4.462;2022-08-19T05:15:56;100189.91;;;16.14;69.56
60725;BME280;59881;36.722;-4.462;2022-08-19T05:18:22;101071.56;;;20.78;70.01
60725;BME280;59881;36.722;-4.462;2022-08-19T05:21:10;100307.19;;;16.92;70.26
60725;BME280;59881;36.722;-4.462;2022-08-19T05:23:54;100146.25;;;15.99;70.28
60725;BME280;59881;36.722;-4.462;2022-08-19T05:26:20;100902.19;;;20.60;70.51
60725;BME280;59881;36.722;-4.462;2022-08-19T05:28:46;100778.16;;;19.84;70.50
60725;BME280;59881;36.722;-4.462;2022-08-19T05:31:11;100198.19;;;16.29;69.91
60725;BME280;59881;36.722;-4.462;2022-08-19T05:33:38;100777.28;;;19.83;69.90
60725;BME280;59881;36.722;-4.462;2022-08-19T05:36:05;100117.59;;;15.75;69.11
60725;BME280;59881;36.722;-4.462;2022-08-19T05:38:33;100022.13;;;15.27;69.09
60725;BME280;59881;36.722;-4.462;2022-08-19T05:40:58;100928.69;;;20.87;68.93
60725;BME280;59881;36.722;-4.462;2022-08-19T05:43:24;100848.41;;;20.45;68.31
60725;BME280;59881;36.722;-4.462;2022-08-19T05:45:50;100895.03;;;20.77;67.97
60725;BME280;59881;36.722;-4.462;2022-08-19T05:48:16;101174.41;;;21.20;67.73
60725;BME280;59881;36.722;-4.462;2022-08-19T05:50:45;100785.28;;;20.18;67.61
60725;BME280;59881;36.722;-4.462;2022-08-19T05:53:12;100368.72;;;17.69;67.66
60725;BME280;59881;36.722;-4.462;2022-08-19T05:55:41;100224.38;;;16.95;67.07
60725;BME280;59881;36.722;-4.462;2022-08-19T05:58:06;100315.69;;;17.84;66.48
60725;BME280;59881;36.722;-4.462;2022-08-19T06:00:33;100324.94;;;18.40;65.21
60725;BME280;59881;36.722;-4.462;2022-08-19T06:02:59;100868.78;;;22.35;63.86
60725;BME280;59881;36.722;-4.462;2022-08-19T06:05:31;99085.03;;;12.03;61.55
60725;BME280;59881;36.722;-4.462;2022-08-19T06:07:57;100977.78;;;24.22;59.97
60725;BME280;59881;36.722;-4.462;2022-08-19T06:10:24;100325.66;;;20.77;57.33
60725;BME280;59881;36.722;-4.462;2022-08-19T06:12:51;100972.94;;;25.28;55.23
60725;BME280;59881;36.722;-4.462;2022-08-19T06:15:17;100981.59;;;25.88;53.59
60725;BME280;59881;36.722;-4.462;2022-08-19T06:17:43;100962.97;;;26.28;51.96
60725;BME280;59881;36.722;-4.462;2022-08-19T06:20:13;100983.69;;;26.90;50.56
60725;BME280;59881;36.722;-4.462;2022-08-19T06:22:46;100418.44;;;24.04;48.68
60725;BME280;59881;36.722;-4.462;2022-08-19T06:25:15;100959.50;;;27.90;47.20
60725;BME280;59881;36.722;-4.462;2022-08-19T06:27:40;100465.69;;;25.31;45.34
60725;BME280;59881;36.722;-4.462;2022-08-19T06:30:07;100847.63;;;27.96;43.80
60725;BME280;59881;36.722;-4.462;2022-08-19T06:32:33;100956.34;;;29.23;42.77
60725;BME280;59881;36.722;-4.462;2022-08-19T06:34:58;100828.84;;;28.92;41.39
60725;BME280;59881;36.722;-4.462;2022-08-19T06:37:24;100457.56;;;27.02;40.50
60725;BME280;59881;36.722;-4.462;2022-08-19T06:39:50;100492.31;;;27.69;40.30
60725;BME280;59881;36.722;-4.462;2022-08-19T06:42:16;100522.19;;;28.13;39.14
60725;BME280;59881;36.722;-4.462;2022-08-19T06:44:46;100706.63;;;29.74;38.63
60725;BME280;59881;36.722;-4.462;2022-08-19T06:47:15;100511.81;;;29.08;38.01
60725;BME280;59881;36.722;-4.462;2022-08-19T06:49:41;100482.00;;;29.39;37.80
60725;BME280;59881;36.722;-4.462;2022-08-19T06:52:08;100931.72;;;31.93;36.55
60725;BME280;59881;36.722;-4.462;2022-08-19T06:54:33;100991.56;;;33.33;36.11
60725;BME280;59881;36.722;-4.462;2022-08-19T06:57:00;100896.44;;;33.08;35.23
60725;BME280;59881;36.722;-4.462;2022-08-19T06:59:30;100481.94;;;30.87;34.49
60725;BME280;59881;36.722;-4.462;2022-08-19T07:01:59;100491.53;;;31.47;33.09
60725;BME280;59881;36.722;-4.462;2022-08-19T07:04:31;100951.00;;;34.76;32.06
60725;BME280;59881;36.722;-4.462;2022-08-19T07:07:07;100599.31;;;32.56;32.54
60725;BME280;59881;36.722;-4.462;2022-08-19T07:09:33;100471.56;;;31.92;32.21
60725;BME280;59881;36.722;-4.462;2022-08-19T07:11:59;101004.97;;;35.62;32.45
60725;BME280;59881;36.722;-4.462;2022-08-19T07:14:27;100987.38;;;36.33;32.11
60725;BME280;59881;36.722;-4.462;2022-08-19T07:16:55;100567.06;;;34.22;31.16
60725;BME280;59881;36.722;-4.462;2022-08-19T07:19:23;100602.88;;;34.58;30.28
60725;BME280;59881;36.722;-4.462;2022-08-19T07:21:50;100470.91;;;33.93;30.57
60725;BME280;59881;36.722;-4.462;2022-08-19T07:24:19;100896.75;;;37.01;29.67
60725;BME280;59881;36.722;-4.462;2022-08-19T07:26:45;100377.63;;;34.22;28.92
60725;BME280;59881;36.722;-4.462;2022-08-19T07:29:12;100615.72;;;35.06;29.17
60725;BME280;59881;36.722;-4.462;2022-08-19T07:31:38;100555.47;;;34.48;29.41
60725;BME280;59881;36.722;-4.462;2022-08-19T07:34:06;101012.28;;;36.79;29.50
60725;BME280;59881;36.722;-4.462;2022-08-19T07:36:33;101066.28;;;37.31;30.27
60725;BME280;59881;36.722;-4.462;2022-08-19T07:39:03;100859.13;;;37.32;28.94
60725;BME280;59881;36.722;-4.462;2022-08-19T07:41:29;100626.94;;;36.59;27.58
60725;BME280;59881;36.722;-4.462;2022-08-19T07:44:00;101037.78;;;39.63;26.98
60725;BME280;59881;36.722;-4.462;2022-08-19T07:46:33;100049.31;;;33.88;26.88
60725;BME280;59881;36.722;-4.462;2022-08-19T07:48:59;101190.31;;;40.62;26.46
60725;BME280;59881;36.722;-4.462;2022-08-19T07:51:26;100529.47;;;38.11;25.47
60725;BME280;59881;36.722;-4.462;2022-08-19T07:53:52;100524.38;;;38.53;24.86
60725;BME280;59881;36.722;-4.462;2022-08-19T07:56:21;100916.47;;;41.30;24.05
60725;BME280;59881;36.722;-4.462;2022-08-19T07:58:48;101039.06;;;42.61;24.02
60725;BME280;59881;36.722;-4.462;2022-08-19T08:01:18;101023.34;;;42.70;23.39
60725;BME280;59881;36.722;-4.462;2022-08-19T08:03:47;101024.28;;;42.65;22.88
60725;BME280;59881;36.722;-4.462;2022-08-19T08:06:31;101031.88;;;42.32;23.54
60725;BME280;59881;36.722;-4.462;2022-08-19T08:09:19;100551.44;;;39.13;23.38
60725;BME280;59881;36.722;-4.462;2022-08-19T08:11:58;100684.44;;;38.60;25.29
60725;BME280;59881;36.722;-4.462;2022-08-19T08:14:28;100574.66;;;37.60;25.29
60725;BME280;59881;36.722;-4.462;2022-08-19T08:16:55;101039.13;;;40.29;25.56
60725;BME280;59881;36.722;-4.462;2022-08-19T08:19:22;100655.69;;;36.93;26.84
60725;BME280;59881;36.722;-4.462;2022-08-19T08:21:49;100607.47;;;36.51;28.08
60725;BME280;59881;36.722;-4.462;2022-08-19T08:24:16;100622.03;;;36.25;28.68
60725;BME280;59881;36.722;-4.462;2022-08-19T08:26:42;100659.00;;;35.77;29.91
60725;BME280;59881;36.722;-4.462;2022-08-19T08:29:10;101068.50;;;38.16;30.57
60725;BME280;59881;36.722;-4.462;2022-08-19T08:31:41;101046.28;;;38.02;30.20
60725;BME280;59881;36.722;-4.462;2022-08-19T08:34:08;101053.94;;;37.75;30.31
60725;BME280;59881;36.722;-4.462;2022-08-19T08:36:38;100991.50;;;38.01;29.78
60725;BME280;59881;36.722;-4.462;2022-08-19T08:39:12;101051.94;;;38.57;29.18
60725;BME280;59881;36.722;-4.462;2022-08-19T08:44:36;100414.81;;;34.28;30.31
60725;BME280;59881;36.722;-4.462;2022-08-19T08:47:09;100572.94;;;35.88;29.11
60725;BME280;59881;36.722;-4.462;2022-08-19T08:50:24;101076.44;;;39.58;28.60
60725;BME280;59881;36.722;-4.462;2022-08-19T08:52:53;101166.69;;;40.50;27.51
60725;BME280;59881;36.722;-4.462;2022-08-19T08:55:23;100619.19;;;37.62;27.97
60725;BME280;59881;36.722;-4.462;2022-08-19T09:00:21;101077.78;;;39.61;28.80
60725;BME280;59881;36.722;-4.462;2022-08-19T09:02:49;100530.47;;;35.75;29.51
60725;BME280;59881;36.722;-4.462;2022-08-19T09:05:15;100966.13;;;38.89;29.28
60725;BME280;59881;36.722;-4.462;2022-08-19T09:07:53;101071.88;;;39.78;28.84
60725;BME280;59881;36.722;-4.462;2022-08-19T09:10:52;101078.38;;;39.58;29.19
60725;BME280;59881;36.722;-4.462;2022-08-19T09:16:11;100440.41;;;36.49;27.42
60725;BME280;59881;36.722;-4.462;2022-08-19T09:18:42;101143.16;;;40.00;28.02
60725;BME280;59881;36.722;-4.462;2022-08-19T09:21:08;100614.56;;;37.47;27.48
60725;BME280;59881;36.722;-4.462;2022-08-19T09:23:35;100516.22;;;36.95;27.44
60725;BME280;59881;36.722;-4.462;2022-08-19T09:26:04;100546.66;;;37.08;27.66
60725;BME280;59881;36.722;-4.462;2022-08-19T09:28:31;101080.00;;;39.64;27.92
60725;BME280;59881;36.722;-4.462;2022-08-19T09:30:56;100490.75;;;35.68;28.54
60725;BME280;59881;36.722;-4.462;2022-08-19T09:33:22;101095.69;;;39.63;28.31
60725;BME280;59881;36.722;-4.462;2022-08-19T09:35:47;100528.44;;;36.58;27.93
60725;BME280;59881;36.722;-4.462;2022-08-19T09:38:13;101097.69;;;40.21;27.72
60725;BME280;59881;36.722;-4.462;2022-08-19T09:40:38;101094.78;;;40.61;26.91
60725;BME280;59881;36.722;-4.462;2022-08-19T09:43:04;101088.28;;;40.75;27.38
60725;BME280;59881;36.722;-4.462;2022-08-19T09:45:30;100560.06;;;37.65;26.77
60725;BME280;59881;36.722;-4.462;2022-08-19T09:47:56;101093.31;;;41.11;26.55
60725;BME280;59881;36.722;-4.462;2022-08-19T09:50:23;101052.72;;;40.69;26.82
60725;BME280;59881;36.722;-4.462;2022-08-19T09:52:49;100787.03;;;38.26;27.54
60725;BME280;59881;36.722;-4.462;2022-08-19T09:55:14;101100.78;;;40.44;27.59
60725;BME280;59881;36.722;-4.462;2022-08-19T09:57:41;101125.25;;;39.92;28.38
60725;BME280;59881;36.722;-4.462;2022-08-19T10:00:08;100999.09;;;39.73;27.95
60725;BME280;59881;36.722;-4.462;2022-08-19T10:02:35;101111.13;;;40.57;27.17
60725;BME280;59881;36.722;-4.462;2022-08-19T10:05:01;100488.38;;;36.57;27.85
60725;BME280;59881;36.722;-4.462;2022-08-19T10:07:45;100727.41;;;39.14;26.33
60725;BME280;59881;36.722;-4.462;2022-08-19T10:10:11;101116.16;;;40.98;27.12
60725;BME280;59881;36.722;-4.462;2022-08-19T10:12:37;101013.41;;;40.10;27.26
60725;BME280;59881;36.722;-4.462;2022-08-19T10:15:04;100565.25;;;37.27;27.18
60725;BME280;59881;36.722;-4.462;2022-08-19T10:17:31;101116.75;;;40.18;27.24
60725;BME280;59881;36.722;-4.462;2022-08-19T10:19:59;100870.81;;;37.94;27.05
60725;BME280;59881;36.722;-4.462;2022-08-19T10:22:25;101110.72;;;40.69;26.95
60725;BME280;59881;36.722;-4.462;2022-08-19T10:24:50;100761.41;;;37.91;28.30
60725;BME280;59881;36.722;-4.462;2022-08-19T10:27:17;100639.53;;;36.91;29.21
60725;BME280;59881;36.722;-4.462;2022-08-19T10:29:42;100773.41;;;37.40;29.29
60725;BME280;59881;36.722;-4.462;2022-08-19T10:32:08;100898.31;;;37.94;29.86
60725;BME280;59881;36.722;-4.462;2022-08-19T10:34:35;101108.16;;;39.11;30.64
60725;BME280;59881;36.722;-4.462;2022-08-19T10:37:02;101097.16;;;39.06;30.48
60725;BME280;59881;36.722;-4.462;2022-08-19T10:39:32;100553.47;;;35.95;30.78
60725;BME280;59881;36.722;-4.462;2022-08-19T10:41:59;100513.75;;;35.87;30.81
60725;BME280;59881;36.722;-4.462;2022-08-19T10:44:25;101203.28;;;39.98;29.36
60725;BME280;59881;36.722;-4.462;2022-08-19T10:46:50;101102.69;;;39.01;31.00
60725;BME280;59881;36.722;-4.462;2022-08-19T10:49:17;101158.81;;;35.49;35.39
60725;BME280;59881;36.722;-4.462;2022-08-19T10:51:44;101254.00;;;32.54;42.21
60725;BME280;59881;36.722;-4.462;2022-08-19T10:54:28;100600.28;;;26.67;48.28
60725;BME280;59881;36.722;-4.462;2022-08-19T10:57:13;100458.97;;;24.58;52.06
60725;BME280;59881;36.722;-4.462;2022-08-19T10:59:39;101011.72;;;27.37;54.51
60725;BME280;59881;36.722;-4.462;2022-08-19T11:02:07;101134.38;;;27.71;56.08
60725;BME280;59881;36.722;-4.462;2022-08-19T11:04:35;100993.88;;;26.53;56.66
60725;BME280;59881;36.722;-4.462;2022-08-19T11:07:00;101013.72;;;26.39;57.31
60725;BME280;59881;36.722;-4.462;2022-08-19T11:09:27;100382.63;;;22.52;57.21
60725;BME280;59881;36.722;-4.462;2022-08-19T11:11:53;101002.16;;;26.17;57.53
60725;BME280;59881;36.722;-4.462;2022-08-19T11:14:20;101359.22;;;26.92;58.40
60725;BME280;59881;36.722;-4.462;2022-08-19T11:16:47;100957.56;;;25.71;58.32
60725;BME280;59881;36.722;-4.462;2022-08-19T11:19:14;101006.34;;;25.91;58.66
60725;BME280;59881;36.722;-4.462;2022-08-19T11:21:43;101047.28;;;26.23;58.12
60725;BME280;59881;36.722;-4.462;2022-08-19T11:24:23;101149.31;;;26.77;58.36
60725;BME280;59881;36.722;-4.462;2022-08-19T11:26:52;101186.72;;;26.74;58.86
60725;BME280;59881;36.722;-4.462;2022-08-19T11:29:20;101139.69;;;26.68;59.23
60725;BME280;59881;36.722;-4.462;2022-08-19T11:31:47;100672.75;;;23.78;59.61
60725;BME280;59881;36.722;-4.462;2022-08-19T11:34:16;100616.13;;;23.50;59.08
60725;BME280;59881;36.722;-4.462;2022-08-19T11:36:43;100370.44;;;22.05;59.00
60725;BME280;59881;36.722;-4.462;2022-08-19T11:39:12;101133.78;;;26.86;58.91
60725;BME280;59881;36.722;-4.462;2022-08-19T11:41:37;100966.16;;;25.17;59.22
60725;BME280;59881;36.722;-4.462;2022-08-19T11:44:03;101187.78;;;26.08;59.33
60725;BME280;59881;36.722;-4.462;2022-08-19T11:46:30;101077.75;;;26.45;59.17
60725;BME280;59881;36.722;-4.462;2022-08-19T11:48:56;101135.72;;;26.64;59.21
60725;BME280;59881;36.722;-4.462;2022-08-19T11:51:24;101131.69;;;26.32;59.85
60725;BME280;59881;36.722;-4.462;2022-08-19T11:53:51;101057.88;;;25.96;59.78
60725;BME280;59881;36.722;-4.462;2022-08-19T11:56:18;101136.59;;;26.50;59.57
60725;BME280;59881;36.722;-4.462;2022-08-19T11:58:44;101088.06;;;26.28;59.85
60725;BME280;59881;36.722;-4.462;2022-08-19T12:01:12;100392.56;;;22.22;59.00
60725;BME280;59881;36.722;-4.462;2022-08-19T12:03:39;101168.28;;;24.95;58.63
60725;BME280;59881;36.722;-4.462;2022-08-19T12:06:08;101204.59;;;26.75;58.34
60725;BME280;59881;36.722;-4.462;2022-08-19T12:08:34;100711.28;;;24.58;57.37
60725;BME280;59881;36.722;-4.462;2022-08-19T12:10:59;100438.03;;;23.05;56.89
60725;BME280;59881;36.722;-4.462;2022-08-19T12:13:29;100803.41;;;25.39;56.38
60725;BME280;59881;36.722;-4.462;2022-08-19T12:15:56;100454.00;;;23.13;55.99
60725;BME280;59881;36.722;-4.462;2022-08-19T12:18:22;100405.66;;;22.77;55.82
60725;BME280;59881;36.722;-4.462;2022-08-19T12:20:50;100984.44;;;26.08;55.73
60725;BME280;59881;36.722;-4.462;2022-08-19T12:23:16;101242.75;;;26.87;56.47
60725;BME280;59881;36.722;-4.462;2022-08-19T12:25:46;101004.44;;;26.13;57.12
60725;BME280;59881;36.722;-4.462;2022-08-19T12:28:16;101233.91;;;26.99;56.09
60725;BME280;59881;36.722;-4.462;2022-08-19T12:30:42;100410.38;;;23.11;55.46
60725;BME280;59881;36.722;-4.462;2022-08-19T12:33:07;100567.84;;;24.00;54.15
60725;BME280;59881;36.722;-4.462;2022-08-19T12:35:33;100994.44;;;26.42;55.50
60725;BME280;59881;36.722;-4.462;2022-08-19T12:37:59;100949.28;;;26.29;53.24
60725;BME280;59881;36.722;-4.462;2022-08-19T12:40:27;101199.22;;;27.10;54.14
60725;BME280;59881;36.722;-4.462;2022-08-19T12:42:53;101017.06;;;26.69;55.08
60725;BME280;59881;36.722;-4.462;2022-08-19T12:45:19;100098.47;;;20.74;54.55
60725;BME280;59881;36.722;-4.462;2022-08-19T12:47:44;101073.88;;;26.82;55.61
60725;BME280;59881;36.722;-4.462;2022-08-19T12:50:11;101099.59;;;26.43;53.82
60725;BME280;59881;36.722;-4.462;2022-08-19T12:52:36;101050.59;;;26.81;53.94
60725;BME280;59881;36.722;-4.462;2022-08-19T12:55:03;100374.59;;;22.08;53.61
60725;BME280;59881;36.722;-4.462;2022-08-19T12:57:30;100408.34;;;23.13;53.16